Time;durP1;ratioP1;P1;durP2;ratioP2;P2;SDS_P1;SDS_P2;PMS_P1;PMS_P2;Temp;Humidity;BMP_temperature;BMP_pressure;BME280_temperature;BME280_humidity;BME280_pressure;Samples;Min_cycle;Max_cycle;Signal;HPM_P1;HPM_P2
2021/09/21 00:00:47;;;;;;;4.30;3.40;;;;;;;11.24;45.72;102708.19;5004174;28;20037;-69
2021/09/21 00:03:12;;;;;;;4.18;3.00;;;;;;;11.21;45.87;102698.63;5004940;28;20053;-69
2021/09/21 00:05:38;;;;;;;5.07;3.42;;;;;;;11.27;46.19;102707.31;5003950;28;20065;-69
2021/09/21 00:08:04;;;;;;;4.65;3.70;;;;;;;11.33;45.94;102715.94;5005080;28;20113;-69
2021/09/21 00:10:31;;;;;;;3.72;3.33;;;;;;;11.29;46.05;102713.38;5005260;28;20045;-69
2021/09/21 00:12:56;;;;;;;6.32;2.95;;;;;;;11.32;45.67;102708.09;4998671;28;20030;-69
2021/09/21 00:15:22;;;;;;;3.38;2.50;;;;;;;11.21;45.59;102716.09;5004381;28;20506;-67
2021/09/21 00:17:50;;;;;;;6.47;2.70;;;;;;;11.16;46.06;102710.06;5004399;28;20517;-68
2021/09/21 00:20:17;;;;;;;4.60;2.97;;;;;;;11.17;46.04;102714.41;5004029;28;20030;-68
2021/09/21 00:22:43;;;;;;;6.15;3.95;;;;;;;11.13;46.02;102707.47;5007422;28;20718;-68
2021/09/21 00:25:10;;;;;;;5.25;3.60;;;;;;;10.98;46.69;102709.41;5002790;28;20018;-67
2021/09/21 00:27:36;;;;;;;4.78;3.70;;;;;;;11.04;46.86;102709.34;5004817;28;20548;-67
2021/09/21 00:30:03;;;;;;;4.57;3.90;;;;;;;10.95;46.97;102708.56;5005949;28;20128;-67
2021/09/21 00:32:29;;;;;;;5.95;3.45;;;;;;;11.11;46.76;102706.66;5002770;28;20053;-69
2021/09/21 00:34:54;;;;;;;4.72;3.55;;;;;;;11.02;46.81;102710.25;5003692;28;20035;-69
2021/09/21 00:37:20;;;;;;;6.03;3.30;;;;;;;11.10;46.79;102697.06;5003961;28;20033;-68
2021/09/21 00:39:46;;;;;;;4.57;2.75;;;;;;;11.18;46.76;102692.59;5003117;28;20049;-69
2021/09/21 00:42:13;;;;;;;6.93;3.13;;;;;;;11.22;46.60;102691.66;5018590;28;20064;-68
2021/09/21 00:44:40;;;;;;;4.22;3.83;;;;;;;11.08;46.37;102691.81;5002925;28;20143;-68
2021/09/21 00:47:10;;;;;;;5.57;3.63;;;;;;;11.04;46.90;102692.78;5002510;28;20049;-69
2021/09/21 00:49:36;;;;;;;5.13;3.25;;;;;;;11.11;46.58;102698.81;4993938;28;20044;-69
2021/09/21 00:52:03;;;;;;;4.80;2.70;;;;;;;11.21;46.59;102700.38;5003408;28;20120;-68
2021/09/21 00:54:29;;;;;;;5.15;3.20;;;;;;;11.13;46.48;102697.00;4981030;28;20128;-68
2021/09/21 00:56:56;;;;;;;6.22;2.88;;;;;;;11.19;46.00;102699.53;5003258;28;20108;-68
2021/09/21 00:59:21;;;;;;;3.58;2.90;;;;;;;11.29;46.33;102697.69;5003345;28;20033;-68
2021/09/21 01:01:47;;;;;;;4.18;3.42;;;;;;;11.32;46.36;102698.50;5002412;28;20505;-68
2021/09/21 01:04:13;;;;;;;4.50;3.20;;;;;;;11.31;45.96;102691.53;4983684;28;20080;-69
2021/09/21 01:06:39;;;;;;;4.90;3.75;;;;;;;11.18;46.03;102685.59;5002251;28;20044;-68
2021/09/21 01:09:05;;;;;;;6.63;3.33;;;;;;;11.14;46.27;102680.44;5002289;28;20037;-68
2021/09/21 01:11:30;;;;;;;4.25;3.17;;;;;;;11.25;46.33;102674.16;5004160;28;20057;-69
2021/09/21 01:13:56;;;;;;;4.57;3.30;;;;;;;10.96;46.75;102669.31;5003508;28;20548;-69
2021/09/21 01:16:22;;;;;;;3.63;2.97;;;;;;;11.03;47.17;102670.09;5003470;28;20132;-69
2021/09/21 01:18:49;;;;;;;8.57;4.25;;;;;;;10.97;47.25;102672.78;5003105;28;20128;-69
2021/09/21 01:21:16;;;;;;;7.10;3.95;;;;;;;10.87;47.00;102673.81;5003311;28;20116;-67
2021/09/21 01:23:49;;;;;;;6.75;3.53;;;;;;;10.84;47.29;102664.25;5003108;28;20490;-68
2021/09/21 01:26:17;;;;;;;6.78;3.53;;;;;;;10.94;47.48;102665.84;4995200;28;20049;-69
2021/09/21 01:28:43;;;;;;;5.53;3.70;;;;;;;11.10;46.93;102663.03;5001480;28;20041;-69
2021/09/21 01:31:08;;;;;;;5.10;3.60;;;;;;;11.05;46.81;102652.63;5003662;28;20034;-67
2021/09/21 01:33:34;;;;;;;4.03;3.28;;;;;;;10.81;47.63;102654.66;5003202;28;20033;-67
2021/09/21 01:35:59;;;;;;;5.05;3.72;;;;;;;10.83;47.41;102657.28;5003040;28;20041;-68
2021/09/21 01:38:25;;;;;;;4.50;3.28;;;;;;;10.91;47.50;102647.59;5003331;28;20033;-67
2021/09/21 01:40:50;;;;;;;5.07;3.80;;;;;;;10.98;47.34;102659.69;4999826;28;20104;-67
2021/09/21 01:43:16;;;;;;;3.90;2.85;;;;;;;11.05;47.22;102650.00;5003818;28;20069;-67
2021/09/21 01:45:41;;;;;;;6.25;4.18;;;;;;;10.92;47.13;102644.06;5001218;28;20034;-70
2021/09/21 01:48:07;;;;;;;6.72;3.10;;;;;;;10.90;47.67;102643.22;5004283;28;20157;-70
2021/09/21 01:53:16;;;;;;;5.20;3.10;;;;;;;10.91;47.65;102637.13;5003673;28;20034;-68
2021/09/21 01:58:46;;;;;;;6.00;3.65;;;;;;;10.82;47.68;102634.63;5003136;28;20160;-69
2021/09/21 02:01:00;;;;;;;6.57;4.60;;;;;;;10.57;47.75;102637.53;5001335;28;20037;-68
2021/09/21 02:03:25;;;;;;;5.45;3.60;;;;;;;10.47;47.96;102643.72;5018946;28;20045;-69
2021/09/21 02:05:51;;;;;;;5.05;3.00;;;;;;;10.76;47.62;102639.91;4999960;28;20459;-68
2021/09/21 02:08:17;;;;;;;4.60;3.60;;;;;;;10.67;47.53;102650.47;5003973;28;20517;-68
2021/09/21 02:10:43;;;;;;;7.43;3.90;;;;;;;10.72;47.64;102649.53;5001546;28;20127;-67
2021/09/21 02:13:09;;;;;;;6.07;3.88;;;;;;;10.70;47.32;102653.91;5003623;28;20049;-68
2021/09/21 02:15:34;;;;;;;4.97;3.15;;;;;;;10.65;47.94;102660.94;5002117;28;20034;-69
2021/09/21 02:18:00;;;;;;;6.85;3.55;;;;;;;10.59;47.98;102668.84;5002458;28;20037;-68
2021/09/21 02:20:29;;;;;;;5.80;3.10;;;;;;;10.57;47.63;102675.84;5001829;28;20042;-68
2021/09/21 02:22:55;;;;;;;6.53;4.13;;;;;;;10.56;47.79;102682.84;5002374;28;20026;-68
2021/09/21 02:25:21;;;;;;;5.60;3.45;;;;;;;10.57;47.71;102688.94;5004655;28;20037;-68
2021/09/21 02:27:46;;;;;;;4.57;3.80;;;;;;;10.63;47.65;102686.25;5001903;28;20032;-68
2021/09/21 02:30:12;;;;;;;4.82;3.03;;;;;;;10.56;47.87;102684.59;5002645;28;20034;-70
2021/09/21 02:32:38;;;;;;;4.82;3.13;;;;;;;10.62;47.89;102700.22;5000865;28;20157;-68
2021/09/21 02:35:07;;;;;;;5.13;3.22;;;;;;;10.74;47.30;102701.81;5002412;28;20022;-70
2021/09/21 02:37:32;;;;;;;4.50;3.10;;;;;;;10.68;47.00;102702.75;5001976;28;20034;-68
2021/09/21 02:40:00;;;;;;;8.00;4.13;;;;;;;10.74;47.51;102709.66;4995018;28;20033;-69
2021/09/21 02:42:26;;;;;;;3.80;3.05;;;;;;;10.69;47.07;102711.47;5001151;28;20145;-67
2021/09/21 02:44:52;;;;;;;5.80;3.42;;;;;;;10.85;47.05;102705.22;5000709;28;20181;-67
2021/09/21 02:47:17;;;;;;;7.97;3.80;;;;;;;10.88;46.55;102702.53;5002349;28;20041;-67
2021/09/21 02:49:46;;;;;;;5.00;3.55;;;;;;;10.88;46.64;102702.53;5004386;28;20038;-67
2021/09/21 02:52:11;;;;;;;4.20;3.38;;;;;;;10.88;46.25;102705.16;5003898;28;20099;-68
2021/09/21 02:54:36;;;;;;;5.40;3.35;;;;;;;10.89;46.43;102706.91;5001471;28;20038;-67
2021/09/21 02:57:02;;;;;;;4.13;2.80;;;;;;;10.90;46.36;102706.00;5002835;28;20030;-68
2021/09/21 02:59:27;;;;;;;3.03;2.42;;;;;;;10.82;46.18;102713.09;5003306;28;20041;-68
2021/09/21 03:01:53;;;;;;;4.93;3.22;;;;;;;10.76;45.94;102718.38;5006746;28;20038;-69
2021/09/21 03:04:31;;;;;;;8.20;2.90;;;;;;;10.74;46.05;102714.91;5007183;28;20514;-70
2021/09/21 03:07:26;;;;;;;3.90;2.88;;;;;;;10.75;46.08;102721.84;5004445;28;20534;-70
2021/09/21 03:17:28;;;;;;;7.32;3.03;;;;;;;10.86;44.60;102714.81;5006923;28;20886;-72
2021/09/21 03:19:58;;;;;;;3.20;2.30;;;;;;;11.01;44.48;102713.72;5004986;28;20033;-73
2021/09/21 03:22:25;;;;;;;7.28;3.08;;;;;;;10.95;44.07;102714.69;5019845;28;20445;-72
2021/09/21 03:24:51;;;;;;;4.47;3.00;;;;;;;11.05;44.25;102716.28;5002268;28;20486;-70
2021/09/21 03:27:18;;;;;;;5.05;3.63;;;;;;;10.95;44.36;102719.91;5006454;28;20026;-72
2021/09/21 03:29:43;;;;;;;4.53;2.65;;;;;;;11.09;44.17;102721.50;5004867;28;20077;-72
2021/09/21 03:32:09;;;;;;;7.20;2.28;;;;;;;11.12;44.08;102714.47;5005588;28;20026;-72
2021/09/21 03:34:37;;;;;;;4.88;2.92;;;;;;;11.13;44.58;102721.44;5006459;28;20069;-67
2021/09/21 03:37:10;;;;;;;6.78;2.92;;;;;;;10.94;44.73;102718.16;5004249;28;20673;-67
2021/09/21 03:39:37;;;;;;;7.72;3.70;;;;;;;10.78;45.17;102721.84;5020137;28;20125;-67
2021/09/21 03:42:03;;;;;;;5.03;2.63;;;;;;;10.94;45.51;102722.53;5007240;28;20030;-66
2021/09/21 03:44:29;;;;;;;4.45;2.67;;;;;;;11.13;45.00;102704.84;5005324;28;20578;-66
2021/09/21 03:46:55;;;;;;;4.60;2.90;;;;;;;11.07;44.84;102707.56;5004574;28;20030;-67
2021/09/21 03:49:22;;;;;;;8.25;4.10;;;;;;;11.00;45.26;102704.16;5006470;28;20516;-67
2021/09/21 03:51:48;;;;;;;7.13;3.63;;;;;;;10.92;45.50;102699.00;5005217;28;20049;-67
2021/09/21 03:54:13;;;;;;;7.05;3.58;;;;;;;10.79;45.52;102694.78;5004576;28;20038;-68
2021/09/21 03:56:40;;;;;;;5.72;3.70;;;;;;;10.97;45.42;102686.75;5005459;28;20041;-67
2021/09/21 03:59:06;;;;;;;6.63;3.22;;;;;;;11.05;45.48;102692.75;5004693;28;20034;-67
2021/09/21 04:01:32;;;;;;;4.88;4.07;;;;;;;11.10;45.33;102691.81;4999127;28;20038;-67
2021/09/21 04:03:59;;;;;;;7.10;4.05;;;;;;;10.99;45.59;102695.44;5019756;28;20059;-67
2021/09/21 04:06:25;;;;;;;5.43;3.85;;;;;;;11.13;45.48;102687.41;5005474;28;20506;-67
2021/09/21 04:08:52;;;;;;;6.05;3.75;;;;;;;11.13;45.51;102687.41;5006180;28;20030;-67
2021/09/21 04:11:17;;;;;;;6.88;4.13;;;;;;;11.16;45.51;102689.13;5004983;28;20065;-68
2021/09/21 04:13:43;;;;;;;7.85;4.13;;;;;;;11.21;45.80;102679.44;5005862;28;20042;-67
2021/09/21 04:16:09;;;;;;;6.80;3.90;;;;;;;11.07;46.31;102687.50;5004293;28;20067;-67
2021/09/21 04:18:34;;;;;;;7.35;3.97;;;;;;;11.22;46.00;102692.53;5005315;28;20048;-68
2021/09/21 04:21:00;;;;;;;9.20;4.07;;;;;;;11.16;45.77;102691.75;5003095;28;20051;-67
2021/09/21 04:23:25;;;;;;;5.25;3.45;;;;;;;11.23;45.81;102680.28;5004412;28;20030;-68
2021/09/21 04:25:51;;;;;;;8.98;4.40;;;;;;;10.94;46.63;102684.16;5001540;28;20026;-68
2021/09/21 04:28:19;;;;;;;6.82;4.22;;;;;;;11.04;46.39;102691.03;5005712;28;20033;-68
2021/09/21 04:30:45;;;;;;;9.60;4.07;;;;;;;11.08;46.36;102689.22;5018432;28;20100;-70
2021/09/21 04:33:13;;;;;;;9.77;4.70;;;;;;;10.90;46.80;102699.91;4997007;28;20394;-69
2021/09/21 04:35:40;;;;;;;7.72;4.90;;;;;;;10.87;47.38;102698.22;5003610;28;20033;-68
2021/09/21 04:38:06;;;;;;;7.43;4.40;;;;;;;10.94;47.00;102702.47;5004248;28;20465;-68
2021/09/21 04:40:32;;;;;;;12.93;4.95;;;;;;;10.72;47.50;102708.81;5004238;28;20038;-68
2021/09/21 04:42:58;;;;;;;6.78;4.50;;;;;;;10.73;47.42;102708.81;5004278;28;20072;-68
2021/09/21 04:45:23;;;;;;;7.53;3.88;;;;;;;10.93;47.17;102712.94;5002923;28;20038;-68
2021/09/21 04:47:49;;;;;;;6.47;4.32;;;;;;;11.00;46.90;102707.63;5004205;28;20041;-68
2021/09/21 04:50:14;;;;;;;7.60;4.13;;;;;;;10.99;46.55;102713.75;5004377;28;20055;-68
2021/09/21 04:52:40;;;;;;;9.55;5.05;;;;;;;11.00;47.20;102702.41;4995406;28;20376;-69
2021/09/21 04:55:07;;;;;;;10.20;4.63;;;;;;;11.06;47.16;102704.06;5002137;28;20123;-69
2021/09/21 04:57:33;;;;;;;9.35;5.05;;;;;;;10.95;47.25;102704.22;4997977;28;20061;-70
2021/09/21 04:59:59;;;;;;;8.48;3.88;;;;;;;11.11;46.84;102704.03;5003693;28;20470;-70
2021/09/21 05:02:24;;;;;;;8.45;4.55;;;;;;;11.17;46.96;102709.16;5004181;28;20041;-70
2021/09/21 05:04:50;;;;;;;8.05;3.85;;;;;;;11.16;46.97;102708.31;5003246;28;20601;-70
2021/09/21 05:07:15;;;;;;;7.07;4.35;;;;;;;11.12;46.98;102706.59;5004653;28;20146;-73
2021/09/21 05:09:41;;;;;;;8.00;4.78;;;;;;;11.16;46.97;102712.69;5004993;28;20113;-72
2021/09/21 05:12:06;;;;;;;9.13;5.10;;;;;;;11.15;46.88;102705.69;5002525;28;20095;-68
2021/09/21 05:14:35;;;;;;;6.20;4.40;;;;;;;11.22;47.10;102699.53;5003731;28;20088;-67
2021/09/21 05:17:00;;;;;;;7.63;4.78;;;;;;;11.26;46.96;102693.31;5003641;28;20034;-68
2021/09/21 05:19:26;;;;;;;7.90;5.07;;;;;;;11.24;46.70;102695.09;5003889;28;20038;-68
2021/09/21 05:21:51;;;;;;;12.48;5.40;;;;;;;11.25;46.62;102691.63;5001863;28;20034;-69
2021/09/21 05:24:17;;;;;;;8.18;5.07;;;;;;;11.22;46.79;102691.66;5004435;28;20789;-69
2021/09/21 05:26:42;;;;;;;10.73;6.22;;;;;;;11.25;46.91;102691.63;5001771;28;20135;-68
2021/09/21 05:29:08;;;;;;;9.85;6.07;;;;;;;11.25;47.21;102702.94;5003861;28;20041;-68
2021/09/21 05:31:34;;;;;;;9.77;6.15;;;;;;;11.27;46.45;102691.59;4997675;28;20041;-68
2021/09/21 05:34:01;;;;;;;11.43;5.40;;;;;;;11.26;47.03;102693.31;4998238;28;20064;-68
2021/09/21 05:36:27;;;;;;;8.07;5.20;;;;;;;11.22;47.45;102691.66;5002713;28;20042;-68
2021/09/21 05:38:52;;;;;;;13.85;5.53;;;;;;;11.16;47.35;102692.59;5005252;28;20038;-68
2021/09/21 05:41:18;;;;;;;9.20;4.80;;;;;;;11.38;46.97;102690.56;5004031;28;20092;-68
2021/09/21 05:43:43;;;;;;;7.57;5.20;;;;;;;11.51;46.73;102692.97;5004198;28;20055;-69
2021/09/21 05:46:09;;;;;;;10.40;5.07;;;;;;;11.51;46.48;102690.34;5003913;28;20110;-69
2021/09/21 05:48:34;;;;;;;10.85;5.00;;;;;;;11.57;46.72;102687.66;5004585;28;20052;-68
2021/09/21 05:51:00;;;;;;;9.20;5.95;;;;;;;11.41;46.68;102690.50;5002026;28;20400;-68
2021/09/21 05:53:25;;;;;;;8.00;4.63;;;;;;;11.40;46.45;102696.63;5002836;28;20061;-68
2021/09/21 05:55:51;;;;;;;6.07;4.15;;;;;;;11.50;45.80;102689.50;5002214;28;20034;-68
2021/09/21 05:58:16;;;;;;;7.97;4.68;;;;;;;11.27;46.49;102688.97;5003230;28;20422;-72
2021/09/21 06:00:42;;;;;;;5.40;3.85;;;;;;;11.40;46.72;102701.88;5002261;28;20422;-70
2021/09/21 06:03:08;;;;;;;7.75;4.25;;;;;;;11.26;46.35;102701.19;5000564;28;20079;-69
2021/09/21 06:05:34;;;;;;;7.22;4.40;;;;;;;11.08;46.86;102706.66;5002724;28;20602;-69
2021/09/21 06:07:59;;;;;;;5.57;4.18;;;;;;;11.60;45.83;102709.44;4988542;28;20432;-70
2021/09/21 06:10:25;;;;;;;7.00;4.28;;;;;;;11.85;45.84;102725.66;5002477;28;20042;-71
2021/09/21 06:12:51;;;;;;;5.45;3.05;;;;;;;12.12;44.72;102728.72;5005111;28;20503;-71
2021/09/21 06:15:19;;;;;;;6.53;3.95;;;;;;;12.14;44.10;102733.94;5001381;28;20034;-67
2021/09/21 06:17:45;;;;;;;8.32;3.90;;;;;;;11.65;45.56;102735.56;4993534;28;20060;-67
2021/09/21 06:20:12;;;;;;;5.50;3.75;;;;;;;11.77;45.38;102742.34;4993399;28;20042;-67
2021/09/21 06:22:39;;;;;;;6.65;3.30;;;;;;;11.84;45.33;102739.66;5003178;28;20061;-68
2021/09/21 06:25:06;;;;;;;6.00;4.15;;;;;;;11.32;44.95;102739.50;5002101;28;20036;-68
2021/09/21 06:27:34;;;;;;;6.50;2.83;;;;;;;12.01;44.59;102746.38;4991338;28;20042;-68
2021/09/21 06:30:01;;;;;;;5.65;3.40;;;;;;;12.15;43.67;102747.00;4996102;28;20038;-68
2021/09/21 06:32:27;;;;;;;8.30;2.95;;;;;;;12.40;43.26;102751.81;5003717;28;20048;-68
2021/09/21 06:34:52;;;;;;;6.75;3.03;;;;;;;12.63;42.33;102764.53;5006543;28;20225;-68
2021/09/21 06:37:20;;;;;;;6.65;3.20;;;;;;;12.62;42.09;102761.03;5006319;28;20117;-67
2021/09/21 06:39:46;;;;;;;6.00;2.80;;;;;;;12.62;41.93;102771.50;5006410;28;20113;-68
2021/09/21 06:42:12;;;;;;;6.07;2.20;;;;;;;12.16;42.67;102763.63;5007538;28;20034;-68
2021/09/21 06:44:37;;;;;;;8.00;3.40;;;;;;;12.66;42.17;102762.69;5008079;28;20037;-67
2021/09/21 06:47:03;;;;;;;7.07;2.30;;;;;;;13.04;41.38;102761.13;5006437;28;20487;-68
2021/09/21 06:49:30;;;;;;;4.90;2.33;;;;;;;13.52;40.03;102770.63;5003736;28;20089;-68
2021/09/21 06:51:57;;;;;;;7.57;2.33;;;;;;;13.36;39.50;102763.97;5007031;28;20353;-68
2021/09/21 06:54:22;;;;;;;4.55;2.42;;;;;;;12.75;40.42;102759.06;5004843;28;20030;-68
2021/09/21 06:56:48;;;;;;;7.05;2.40;;;;;;;13.25;40.50;102761.56;5007206;28;20029;-69
2021/09/21 06:59:13;;;;;;;3.72;2.47;;;;;;;13.76;39.69;102756.06;5006426;28;20033;-68
2021/09/21 07:01:39;;;;;;;6.68;2.15;;;;;;;14.28;37.96;102757.44;5006157;28;20028;-68
2021/09/21 07:04:04;;;;;;;4.55;2.13;;;;;;;13.77;38.53;102755.19;5004542;28;20041;-68
2021/09/21 07:06:29;;;;;;;4.38;2.80;;;;;;;13.96;38.67;102754.72;5006093;28;20079;-67
2021/09/21 07:08:55;;;;;;;6.70;2.58;;;;;;;14.61;37.23;102749.56;5005319;28;20092;-68
2021/09/21 07:11:21;;;;;;;3.58;1.85;;;;;;;14.07;38.00;102760.59;5005996;28;20177;-68
2021/09/21 07:13:47;;;;;;;4.18;2.00;;;;;;;13.72;38.62;102749.19;4997143;28;20038;-68
2021/09/21 07:16:12;;;;;;;4.32;2.50;;;;;;;12.93;39.81;102754.38;5004706;28;20057;-68
2021/09/21 07:18:38;;;;;;;5.45;2.72;;;;;;;12.98;40.39;102753.38;5006621;28;20529;-68
2021/09/21 07:21:05;;;;;;;4.43;3.00;;;;;;;13.08;40.14;102751.44;5005316;28;20506;-68
2021/09/21 07:23:31;;;;;;;5.47;2.47;;;;;;;13.11;40.72;102754.84;5005559;28;20386;-68
2021/09/21 07:25:56;;;;;;;5.65;2.45;;;;;;;12.78;41.10;102760.78;5003607;28;20109;-69
2021/09/21 07:28:22;;;;;;;6.43;1.92;;;;;;;12.64;41.20;102764.47;5006386;28;20948;-69
2021/09/21 07:30:47;;;;;;;5.38;1.95;;;;;;;13.01;40.23;102752.47;4998707;28;20064;-69
2021/09/21 07:33:15;;;;;;;5.93;2.00;;;;;;;12.86;40.73;102751.00;5004311;28;20038;-69
2021/09/21 07:35:41;;;;;;;3.47;2.05;;;;;;;13.21;39.77;102755.53;4992950;28;20030;-69
2021/09/21 07:38:07;;;;;;;4.63;1.80;;;;;;;13.07;40.32;102758.44;5004653;28;20041;-69
2021/09/21 07:40:35;;;;;;;7.57;2.15;;;;;;;13.08;40.40;102760.16;5003064;28;20042;-69
2021/09/21 07:43:02;;;;;;;4.18;1.60;;;;;;;13.17;39.38;102769.59;5001015;28;20036;-69
2021/09/21 07:45:28;;;;;;;11.75;2.72;;;;;;;13.70;38.98;102769.38;5001432;28;20037;-69
2021/09/21 07:47:54;;;;;;;5.10;2.05;;;;;;;13.57;38.88;102770.56;5001623;28;20080;-69
2021/09/21 07:50:19;;;;;;;4.05;1.58;;;;;;;13.45;39.28;102783.03;4993780;28;20034;-69
2021/09/21 07:52:45;;;;;;;3.60;1.63;;;;;;;14.27;37.51;102781.97;5001103;28;20487;-68
2021/09/21 07:55:10;;;;;;;4.07;1.77;;;;;;;13.84;38.36;102785.66;5016330;28;20450;-67
2021/09/21 07:57:40;;;;;;;4.15;1.67;;;;;;;14.29;37.71;102785.44;5002097;28;20068;-69
2021/09/21 08:00:08;;;;;;;2.38;1.67;;;;;;;13.81;38.22;102783.13;5000058;28;20030;-68
2021/09/21 08:02:37;;;;;;;2.90;1.40;;;;;;;13.78;38.50;102784.94;5002119;28;20038;-68
2021/09/21 08:05:03;;;;;;;2.42;1.08;;;;;;;13.80;39.07;102780.53;5001366;28;20041;-68
2021/09/21 08:07:31;;;;;;;3.03;1.23;;;;;;;14.01;39.43;102779.13;5002577;28;20495;-68
2021/09/21 08:09:58;;;;;;;3.30;1.92;;;;;;;14.02;38.58;102778.25;5018398;28;20041;-68
2021/09/21 08:12:25;;;;;;;2.40;1.58;;;;;;;14.29;38.57;102774.91;5002194;28;20034;-69
2021/09/21 08:14:51;;;;;;;3.53;1.60;;;;;;;15.01;37.67;102774.75;4999940;28;20106;-68
2021/09/21 08:17:17;;;;;;;4.68;2.10;;;;;;;15.00;36.85;102778.31;5002809;28;20126;-70
2021/09/21 08:19:42;;;;;;;5.43;2.55;;;;;;;15.13;36.56;102782.31;5002023;28;20034;-69
2021/09/21 08:22:08;;;;;;;4.57;1.95;;;;;;;14.85;36.95;102779.59;5001344;28;20037;-68
2021/09/21 08:24:34;;;;;;;3.60;1.98;;;;;;;15.17;37.24;102778.69;5001986;28;20104;-68
2021/09/21 08:27:00;;;;;;;2.53;1.58;;;;;;;14.92;37.35;102777.66;5003800;28;20037;-70
2021/09/21 08:29:25;;;;;;;3.17;1.77;;;;;;;14.76;37.41;102780.72;5003014;28;20498;-71
2021/09/21 08:31:51;;;;;;;6.65;1.85;;;;;;;15.37;37.66;102778.13;5004096;28;20076;-68
2021/09/21 08:34:17;;;;;;;6.05;1.92;;;;;;;15.18;37.31;102788.31;5003475;28;20044;-69
2021/09/21 08:36:42;;;;;;;2.67;1.60;;;;;;;15.52;36.98;102775.94;5002131;28;20490;-68
2021/09/21 08:39:08;;;;;;;3.15;2.05;;;;;;;15.48;37.28;102769.91;5018851;28;20490;-69
2021/09/21 08:41:34;;;;;;;4.47;2.33;;;;;;;15.77;36.35;102782.19;5002329;28;20057;-68
2021/09/21 08:44:02;;;;;;;4.63;1.90;;;;;;;15.19;37.81;102781.25;5002955;28;20045;-69
2021/09/21 08:46:27;;;;;;;5.13;1.92;;;;;;;14.92;38.14;102775.03;5002468;28;20099;-69
2021/09/21 08:48:53;;;;;;;8.57;1.88;;;;;;;15.46;37.33;102776.09;5002611;28;20033;-69
2021/09/21 08:51:19;;;;;;;4.78;2.30;;;;;;;15.52;37.14;102773.28;5001468;28;20516;-68
2021/09/21 08:53:44;;;;;;;5.65;1.83;;;;;;;15.74;37.75;102781.41;4996371;28;20050;-68
2021/09/21 08:56:11;;;;;;;3.58;1.80;;;;;;;15.84;36.99;102781.94;4998470;28;20034;-68
2021/09/21 08:58:37;;;;;;;4.25;2.33;;;;;;;15.18;38.02;102772.50;4999599;28;20049;-69
2021/09/21 09:01:10;;;;;;;3.45;1.88;;;;;;;14.82;39.82;102778.84;5001250;28;20037;-68
2021/09/21 09:03:38;;;;;;;3.20;2.13;;;;;;;14.73;39.75;102779.97;4993832;28;20033;-69
2021/09/21 09:06:06;;;;;;;3.78;2.00;;;;;;;15.10;39.13;102769.25;5000704;28;20026;-69
2021/09/21 09:08:37;;;;;;;4.30;2.00;;;;;;;15.13;38.93;102784.97;5001490;28;20045;-69
2021/09/21 09:11:23;;;;;;;2.97;1.30;;;;;;;14.26;40.94;102780.28;5002618;28;20044;-69
2021/09/21 09:13:57;;;;;;;6.10;1.67;;;;;;;14.15;40.96;102782.31;5003367;28;20620;-68
2021/09/21 09:16:31;;;;;;;3.28;1.77;;;;;;;14.76;39.76;102783.34;5004921;28;20533;-69
2021/09/21 09:19:05;;;;;;;2.53;1.90;;;;;;;15.04;39.49;102784.38;5003840;28;20033;-68
2021/09/21 09:21:33;;;;;;;5.65;1.90;;;;;;;14.82;40.15;102784.09;5004194;28;20406;-70
2021/09/21 09:23:59;;;;;;;6.93;2.08;;;;;;;15.38;39.19;102779.84;4992245;28;20403;-69
2021/09/21 09:26:26;;;;;;;6.75;1.88;;;;;;;15.40;39.37;102786.84;5005624;28;20037;-70
2021/09/21 09:28:54;;;;;;;3.50;1.80;;;;;;;15.60;38.61;102779.19;4981940;28;20037;-70
2021/09/21 09:31:33;;;;;;;2.53;1.42;;;;;;;15.98;38.40;102779.75;5003087;28;20105;-73
2021/09/21 09:34:13;;;;;;;8.82;1.65;;;;;;;15.62;38.45;102772.09;5019417;28;20309;-69
2021/09/21 09:36:45;;;;;;;5.07;1.85;;;;;;;15.85;37.98;102766.09;5004230;28;20434;-67
2021/09/21 09:39:10;;;;;;;5.32;2.13;;;;;;;15.68;38.43;102773.66;5002937;28;20401;-69
2021/09/21 09:41:38;;;;;;;3.40;1.92;;;;;;;15.77;38.32;102766.34;5011513;28;20041;-68
2021/09/21 09:44:10;;;;;;;5.78;1.90;;;;;;;15.56;38.65;102767.88;5024235;28;20042;-68
2021/09/21 09:46:53;;;;;;;3.22;1.90;;;;;;;15.88;38.48;102773.03;5039956;28;20048;-70
2021/09/21 09:49:25;;;;;;;6.75;2.05;;;;;;;15.50;39.19;102775.13;5023170;28;20061;-68
2021/09/21 09:51:52;;;;;;;5.72;1.65;;;;;;;16.13;37.95;102783.66;5019147;28;20053;-68
2021/09/21 09:54:18;;;;;;;2.97;2.20;;;;;;;16.55;37.18;102785.75;5022901;28;20308;-67
2021/09/21 09:56:45;;;;;;;5.63;1.95;;;;;;;16.02;38.42;102780.53;5019729;28;20446;-69
2021/09/21 09:59:14;;;;;;;2.90;1.55;;;;;;;15.63;39.18;102778.25;5003664;28;20041;-69
2021/09/21 10:01:42;;;;;;;4.60;2.50;;;;;;;15.58;38.77;102776.59;5019475;28;20046;-68
2021/09/21 10:04:07;;;;;;;3.13;1.75;;;;;;;16.14;37.94;102790.69;5003510;28;20120;-68
2021/09/21 10:06:34;;;;;;;3.80;2.78;;;;;;;14.92;39.72;102786.41;5002926;28;20075;-68
2021/09/21 10:08:59;;;;;;;3.85;1.83;;;;;;;15.73;39.30;102790.22;4992140;28;20222;-68
2021/09/21 10:11:27;;;;;;;3.13;2.08;;;;;;;16.07;38.65;102789.16;5004198;28;20037;-69
2021/09/21 10:13:53;;;;;;;3.42;1.88;;;;;;;16.17;37.89;102791.44;5002897;28;20119;-68
2021/09/21 10:16:20;;;;;;;3.10;2.35;;;;;;;15.86;39.47;102802.09;5001156;28;20049;-68
2021/09/21 10:18:46;;;;;;;2.78;2.40;;;;;;;16.33;38.44;102790.91;4993473;28;20029;-68
2021/09/21 10:21:11;;;;;;;4.30;2.47;;;;;;;15.56;39.11;102796.88;5001838;28;20384;-69
2021/09/21 10:23:42;;;;;;;6.72;2.30;;;;;;;15.82;39.36;102797.84;5002310;28;20040;-68
2021/09/21 10:26:19;;;;;;;3.60;2.05;;;;;;;16.56;37.56;102792.78;5003137;28;20049;-68
2021/09/21 10:28:47;;;;;;;3.20;1.92;;;;;;;16.93;38.22;102796.75;5001969;28;20132;-69
2021/09/21 10:31:17;;;;;;;4.18;1.85;;;;;;;16.96;38.05;102789.59;5003056;28;20049;-68
2021/09/21 10:33:43;;;;;;;3.53;2.15;;;;;;;16.81;37.91;102793.63;5003556;28;20026;-68
2021/09/21 10:36:20;;;;;;;5.20;1.88;;;;;;;16.77;38.20;102801.72;5003575;28;20478;-68
2021/09/21 10:39:12;;;;;;;6.53;2.42;;;;;;;16.47;39.02;102801.03;5002176;28;20034;-69
2021/09/21 10:41:46;;;;;;;3.47;1.73;;;;;;;16.94;38.85;102820.47;5000076;28;20104;-68
2021/09/21 10:44:11;;;;;;;5.22;1.77;;;;;;;16.71;39.15;102812.47;5002596;28;20026;-69
2021/09/21 10:46:44;;;;;;;3.17;2.10;;;;;;;16.75;39.18;102812.34;5001429;28;20038;-68
2021/09/21 10:49:21;;;;;;;3.28;1.83;;;;;;;16.58;38.79;102801.50;5003078;28;20050;-69
2021/09/21 10:51:48;;;;;;;5.35;2.20;;;;;;;16.61;39.14;102807.53;4997323;28;20635;-69
2021/09/21 10:54:14;;;;;;;5.97;2.28;;;;;;;15.63;40.37;102802.81;4992762;28;20022;-68
2021/09/21 10:56:40;;;;;;;5.30;2.35;;;;;;;16.17;40.30;102796.69;4992296;28;20568;-68
2021/09/21 10:59:15;;;;;;;4.80;2.40;;;;;;;16.58;40.24;102802.38;5002225;28;20026;-68
2021/09/21 11:01:49;;;;;;;10.32;3.00;;;;;;;16.24;40.31;102804.41;4996771;28;20069;-68
2021/09/21 11:04:15;;;;;;;6.57;2.78;;;;;;;16.54;39.19;102794.59;5003479;28;20046;-68
2021/09/21 11:06:45;;;;;;;5.60;2.92;;;;;;;16.90;38.93;102788.94;5003748;28;20045;-69
2021/09/21 11:09:10;;;;;;;5.53;3.53;;;;;;;17.36;38.36;102780.16;5001976;28;20376;-69
2021/09/21 11:11:36;;;;;;;6.65;2.53;;;;;;;17.98;37.46;102778.59;5000309;28;20096;-69
2021/09/21 11:14:01;;;;;;;5.72;3.03;;;;;;;17.57;37.42;102780.25;4999599;28;20522;-68
2021/09/21 11:16:28;;;;;;;3.28;2.42;;;;;;;18.21;36.73;102780.31;5000805;28;20052;-68
2021/09/21 11:18:57;;;;;;;4.43;2.72;;;;;;;18.43;36.65;102774.94;4999820;28;20030;-69
2021/09/21 11:21:23;;;;;;;4.63;3.33;;;;;;;18.64;35.89;102765.19;5004306;28;20414;-69
2021/09/21 11:23:48;;;;;;;3.35;2.90;;;;;;;18.87;36.05;102764.19;5003515;28;20030;-68
2021/09/21 11:26:14;;;;;;;4.50;2.80;;;;;;;18.66;36.12;102770.44;5002121;28;20402;-69
2021/09/21 11:28:46;;;;;;;3.55;2.53;;;;;;;18.92;35.81;102760.47;5003681;28;20034;-69
2021/09/21 11:31:12;;;;;;;8.88;2.78;;;;;;;17.95;37.64;102754.03;5001689;28;20479;-69
2021/09/21 11:33:40;;;;;;;3.15;2.25;;;;;;;18.39;37.27;102746.88;5003025;28;20763;-69
2021/09/21 11:36:08;;;;;;;6.47;3.13;;;;;;;17.37;38.98;102750.16;5002538;28;20149;-68